sensor_id;sensor_type;location;lat;lon;timestamp;P1;durP1;ratioP1;P2;durP2;ratioP2
10416;SDS011;62605;49.432;8.680;2024-03-08T07:03:08;9.60;;;4.80;;
10416;SDS011;62605;49.432;8.680;2024-03-08T07:05:37;6.73;;;3.87;;
10416;SDS011;62605;49.432;8.680;2024-03-08T07:08:05;9.90;;;4.23;;
10416;SDS011;62605;49.432;8.680;2024-03-08T07:10:33;9.97;;;5.43;;
10416;SDS011;62605;49.432;8.680;2024-03-08T07:13:00;9.57;;;5.80;;
10416;SDS011;62605;49.432;8.680;2024-03-08T07:15:28;12.93;;;5.57;;
10416;SDS011;62605;49.432;8.680;2024-03-08T07:17:55;6.50;;;4.27;;
10416;SDS011;62605;49.432;8.680;2024-03-08T07:20:23;10.40;;;5.17;;
10416;SDS011;62605;49.432;8.680;2024-03-08T07:22:50;9.97;;;5.03;;
10416;SDS011;62605;49.432;8.680;2024-03-08T07:25:18;10.70;;;4.80;;
10416;SDS011;62605;49.432;8.680;2024-03-08T07:27:49;9.87;;;5.30;;
10416;SDS011;62605;49.432;8.680;2024-03-08T07:30:16;6.03;;;3.47;;
10416;SDS011;62605;49.432;8.680;2024-03-08T07:32:57;9.17;;;5.27;;
10416;SDS011;62605;49.432;8.680;2024-03-08T07:35:26;10.20;;;4.73;;
10416;SDS011;62605;49.432;8.680;2024-03-08T07:37:53;9.80;;;5.13;;
10416;SDS011;62605;49.432;8.680;2024-03-08T07:40:21;13.67;;;6.37;;
10416;SDS011;62605;49.432;8.680;2024-03-08T07:42:48;10.63;;;5.43;;
10416;SDS011;62605;49.432;8.680;2024-03-08T07:45:16;10.13;;;5.40;;
10416;SDS011;62605;49.432;8.680;2024-03-08T07:47:43;12.53;;;6.17;;
10416;SDS011;62605;49.432;8.680;2024-03-08T07:50:10;6.10;;;3.67;;
10416;SDS011;62605;49.432;8.680;2024-03-08T07:52:42;6.40;;;4.57;;
10416;SDS011;62605;49.432;8.680;2024-03-08T07:55:09;9.63;;;4.97;;
10416;SDS011;62605;49.432;8.680;2024-03-08T07:57:36;6.67;;;4.00;;
10416;SDS011;62605;49.432;8.680;2024-03-08T08:00:05;10.63;;;6.23;;
10416;SDS011;62605;49.432;8.680;2024-03-08T08:02:33;8.37;;;4.70;;
10416;SDS011;62605;49.432;8.680;2024-03-08T08:05:00;7.30;;;3.97;;
10416;SDS011;62605;49.432;8.680;2024-03-08T08:07:29;10.80;;;5.97;;
10416;SDS011;62605;49.432;8.680;2024-03-08T08:09:57;8.43;;;5.20;;
10416;SDS011;62605;49.432;8.680;2024-03-08T08:12:24;10.40;;;5.27;;
10416;SDS011;62605;49.432;8.680;2024-03-08T08:14:53;8.70;;;4.93;;
10416;SDS011;62605;49.432;8.680;2024-03-08T08:17:20;10.20;;;5.40;;
10416;SDS011;62605;49.432;8.680;2024-03-08T08:19:47;11.03;;;5.03;;
10416;SDS011;62605;49.432;8.680;2024-03-08T08:22:15;8.97;;;3.90;;
10416;SDS011;62605;49.432;8.680;2024-03-08T08:24:43;12.83;;;4.97;;
10416;SDS011;62605;49.432;8.680;2024-03-08T08:27:12;9.87;;;5.60;;
10416;SDS011;62605;49.432;8.680;2024-03-08T08:29:39;8.30;;;5.20;;
10416;SDS011;62605;49.432;8.680;2024-03-08T08:32:06;9.67;;;5.07;;
10416;SDS011;62605;49.432;8.680;2024-03-08T08:34:33;11.37;;;5.50;;
10416;SDS011;62605;49.432;8.680;2024-03-08T08:37:01;12.03;;;6.33;;
10416;SDS011;62605;49.432;8.680;2024-03-08T08:39:28;11.03;;;5.00;;
10416;SDS011;62605;49.432;8.680;2024-03-08T08:41:55;8.97;;;5.10;;
10416;SDS011;62605;49.432;8.680;2024-03-08T08:44:24;7.97;;;4.47;;
10416;SDS011;62605;49.432;8.680;2024-03-08T08:46:52;8.17;;;5.23;;
10416;SDS011;62605;49.432;8.680;2024-03-08T08:49:19;7.50;;;5.47;;
10416;SDS011;62605;49.432;8.680;2024-03-08T08:51:48;8.47;;;5.07;;
10416;SDS011;62605;49.432;8.680;2024-03-08T08:54:16;11.33;;;5.90;;
10416;SDS011;62605;49.432;8.680;2024-03-08T08:56:43;10.90;;;5.50;;
10416;SDS011;62605;49.432;8.680;2024-03-08T08:59:10;10.73;;;5.90;;
10416;SDS011;62605;49.432;8.680;2024-03-08T09:01:40;9.43;;;6.00;;
10416;SDS011;62605;49.432;8.680;2024-03-08T09:04:07;12.73;;;5.33;;
10416;SDS011;62605;49.432;8.680;2024-03-08T09:06:36;9.73;;;4.83;;
10416;SDS011;62605;49.432;8.680;2024-03-08T09:09:06;5.90;;;4.10;;
10416;SDS011;62605;49.432;8.680;2024-03-08T09:11:36;9.23;;;5.13;;
10416;SDS011;62605;49.432;8.680;2024-03-08T09:14:06;8.40;;;4.73;;
10416;SDS011;62605;49.432;8.680;2024-03-08T09:16:33;8.43;;;4.90;;
10416;SDS011;62605;49.432;8.680;2024-03-08T09:19:03;9.87;;;4.93;;
10416;SDS011;62605;49.432;8.680;2024-03-08T09:21:31;10.97;;;5.53;;
10416;SDS011;62605;49.432;8.680;2024-03-08T09:24:00;9.77;;;5.33;;
10416;SDS011;62605;49.432;8.680;2024-03-08T09:26:27;9.77;;;5.00;;
10416;SDS011;62605;49.432;8.680;2024-03-08T09:28:59;12.70;;;5.93;;
10416;SDS011;62605;49.432;8.680;2024-03-08T09:31:27;7.63;;;4.93;;
10416;SDS011;62605;49.432;8.680;2024-03-08T09:33:54;10.00;;;5.27;;
10416;SDS011;62605;49.432;8.680;2024-03-08T09:36:22;9.67;;;5.60;;
10416;SDS011;62605;49.432;8.680;2024-03-08T09:38:50;9.50;;;5.23;;
10416;SDS011;62605;49.432;8.680;2024-03-08T09:41:18;10.70;;;5.63;;
10416;SDS011;62605;49.432;8.680;2024-03-08T09:43:45;8.67;;;4.80;;
10416;SDS011;62605;49.432;8.680;2024-03-08T09:46:13;11.27;;;5.27;;
10416;SDS011;62605;49.432;8.680;2024-03-08T09:48:41;9.33;;;5.20;;
10416;SDS011;62605;49.432;8.680;2024-03-08T09:51:08;10.83;;;5.17;;
10416;SDS011;62605;49.432;8.680;2024-03-08T09:53:41;9.07;;;5.73;;
10416;SDS011;62605;49.432;8.680;2024-03-08T09:56:08;10.10;;;5.80;;
10416;SDS011;62605;49.432;8.680;2024-03-08T09:58:37;5.97;;;4.00;;
10416;SDS011;62605;49.432;8.680;2024-03-08T10:01:19;10.23;;;5.30;;
10416;SDS011;62605;49.432;8.680;2024-03-08T10:03:47;6.23;;;4.30;;
10416;SDS011;62605;49.432;8.680;2024-03-08T10:06:15;5.23;;;3.30;;
10416;SDS011;62605;49.432;8.680;2024-03-08T10:08:43;7.90;;;4.73;;
10416;SDS011;62605;49.432;8.680;2024-03-08T10:11:11;9.43;;;5.77;;
10416;SDS011;62605;49.432;8.680;2024-03-08T10:13:38;9.43;;;4.83;;
10416;SDS011;62605;49.432;8.680;2024-03-08T10:16:06;7.53;;;5.00;;
10416;SDS011;62605;49.432;8.680;2024-03-08T10:18:34;10.47;;;5.30;;
10416;SDS011;62605;49.432;8.680;2024-03-08T10:21:02;7.67;;;4.80;;
10416;SDS011;62605;49.432;8.680;2024-03-08T10:23:30;9.73;;;5.00;;
10416;SDS011;62605;49.432;8.680;2024-03-08T10:26:06;9.77;;;5.40;;
10416;SDS011;62605;49.432;8.680;2024-03-08T10:28:36;10.47;;;4.43;;
10416;SDS011;62605;49.432;8.680;2024-03-08T10:31:04;8.97;;;4.73;;
10416;SDS011;62605;49.432;8.680;2024-03-08T10:33:31;7.77;;;5.17;;
10416;SDS011;62605;49.432;8.680;2024-03-08T10:35:59;11.10;;;5.13;;
10416;SDS011;62605;49.432;8.680;2024-03-08T10:38:28;7.33;;;4.40;;
10416;SDS011;62605;49.432;8.680;2024-03-08T10:40:59;11.43;;;5.30;;
10416;SDS011;62605;49.432;8.680;2024-03-08T10:43:31;12.87;;;6.10;;
10416;SDS011;62605;49.432;8.680;2024-03-08T10:46:06;9.57;;;5.13;;
10416;SDS011;62605;49.432;8.680;2024-03-08T10:49:04;13.83;;;5.23;;
10416;SDS011;62605;49.432;8.680;2024-03-08T10:51:39;9.20;;;5.53;;
10416;SDS011;62605;49.432;8.680;2024-03-08T10:54:07;10.07;;;5.47;;
10416;SDS011;62605;49.432;8.680;2024-03-08T10:56:37;8.60;;;4.73;;
10416;SDS011;62605;49.432;8.680;2024-03-08T10:59:06;9.50;;;5.40;;
10416;SDS011;62605;49.432;8.680;2024-03-08T11:01:35;7.97;;;5.03;;
10416;SDS011;62605;49.432;8.680;2024-03-08T11:04:04;10.10;;;5.40;;
10416;SDS011;62605;49.432;8.680;2024-03-08T11:06:41;10.00;;;5.43;;
10416;SDS011;62605;49.432;8.680;2024-03-08T11:09:11;8.83;;;5.20;;
10416;SDS011;62605;49.432;8.680;2024-03-08T11:14:53;10.30;;;5.50;;
10416;SDS011;62605;49.432;8.680;2024-03-08T11:17:22;11.37;;;5.47;;
10416;SDS011;62605;49.432;8.680;2024-03-08T11:20:08;10.77;;;5.70;;
10416;SDS011;62605;49.432;8.680;2024-03-08T11:22:40;7.67;;;4.70;;
10416;SDS011;62605;49.432;8.680;2024-03-08T11:25:15;12.60;;;5.33;;
10416;SDS011;62605;49.432;8.680;2024-03-08T11:28:11;10.53;;;5.77;;
10416;SDS011;62605;49.432;8.680;2024-03-08T11:30:47;8.77;;;5.17;;
10416;SDS011;62605;49.432;8.680;2024-03-08T11:33:58;8.63;;;4.73;;
10416;SDS011;62605;49.432;8.680;2024-03-08T11:36:26;10.87;;;5.50;;
10416;SDS011;62605;49.432;8.680;2024-03-08T11:38:55;7.27;;;4.63;;
10416;SDS011;62605;49.432;8.680;2024-03-08T11:41:28;11.67;;;5.80;;
10416;SDS011;62605;49.432;8.680;2024-03-08T11:44:03;8.10;;;5.27;;
10416;SDS011;62605;49.432;8.680;2024-03-08T11:46:38;10.13;;;5.53;;
10416;SDS011;62605;49.432;8.680;2024-03-08T11:49:11;8.60;;;5.20;;
10416;SDS011;62605;49.432;8.680;2024-03-08T11:51:38;11.17;;;5.33;;
10416;SDS011;62605;49.432;8.680;2024-03-08T11:54:06;10.33;;;5.43;;
10416;SDS011;62605;49.432;8.680;2024-03-08T11:56:38;8.60;;;4.97;;
10416;SDS011;62605;49.432;8.680;2024-03-08T11:59:10;13.43;;;5.97;;
10416;SDS011;62605;49.432;8.680;2024-03-08T12:01:39;11.03;;;5.43;;
10416;SDS011;62605;49.432;8.680;2024-03-08T12:04:10;5.93;;;3.60;;
10416;SDS011;62605;49.432;8.680;2024-03-08T12:06:39;11.47;;;5.43;;
10416;SDS011;62605;49.432;8.680;2024-03-08T12:09:09;13.07;;;6.40;;
10416;SDS011;62605;49.432;8.680;2024-03-08T12:11:38;9.13;;;4.97;;
10416;SDS011;62605;49.432;8.680;2024-03-08T12:14:06;8.97;;;5.27;;
10416;SDS011;62605;49.432;8.680;2024-03-08T12:16:33;9.97;;;6.00;;
10416;SDS011;62605;49.432;8.680;2024-03-08T12:19:01;8.73;;;5.80;;
10416;SDS011;62605;49.432;8.680;2024-03-08T12:21:30;12.73;;;5.80;;
10416;SDS011;62605;49.432;8.680;2024-03-08T12:24:04;9.83;;;5.70;;
10416;SDS011;62605;49.432;8.680;2024-03-08T12:26:35;8.17;;;5.27;;
10416;SDS011;62605;49.432;8.680;2024-03-08T12:29:16;10.07;;;5.33;;
10416;SDS011;62605;49.432;8.680;2024-03-08T12:31:45;11.60;;;6.93;;
10416;SDS011;62605;49.432;8.680;2024-03-08T12:34:14;10.40;;;5.73;;
10416;SDS011;62605;49.432;8.680;2024-03-08T12:36:45;10.27;;;6.00;;
10416;SDS011;62605;49.432;8.680;2024-03-08T12:39:15;10.50;;;5.50;;
10416;SDS011;62605;49.432;8.680;2024-03-08T12:41:47;12.20;;;6.33;;
10416;SDS011;62605;49.432;8.680;2024-03-08T12:44:14;12.90;;;6.87;;
10416;SDS011;62605;49.432;8.680;2024-03-08T12:46:42;11.20;;;5.57;;
10416;SDS011;62605;49.432;8.680;2024-03-08T12:49:11;11.70;;;5.83;;
10416;SDS011;62605;49.432;8.680;2024-03-08T12:51:39;10.60;;;5.17;;
10416;SDS011;62605;49.432;8.680;2024-03-08T12:54:06;12.70;;;6.57;;
10416;SDS011;62605;49.432;8.680;2024-03-08T12:56:34;9.60;;;5.80;;
10416;SDS011;62605;49.432;8.680;2024-03-08T12:59:02;9.70;;;5.60;;
10416;SDS011;62605;49.432;8.680;2024-03-08T13:01:31;11.93;;;6.07;;
10416;SDS011;62605;49.432;8.680;2024-03-08T13:03:58;11.10;;;5.43;;
10416;SDS011;62605;49.432;8.680;2024-03-08T13:06:27;9.43;;;5.63;;
10416;SDS011;62605;49.432;8.680;2024-03-08T13:08:59;10.27;;;5.53;;
10416;SDS011;62605;49.432;8.680;2024-03-08T13:11:30;12.47;;;5.40;;
10416;SDS011;62605;49.432;8.680;2024-03-08T13:14:02;7.83;;;5.40;;
10416;SDS011;62605;49.432;8.680;2024-03-08T13:16:30;12.33;;;6.13;;
10416;SDS011;62605;49.432;8.680;2024-03-08T13:18:59;11.00;;;6.20;;
10416;SDS011;62605;49.432;8.680;2024-03-08T13:21:27;9.07;;;5.43;;
10416;SDS011;62605;49.432;8.680;2024-03-08T13:23:55;11.60;;;6.73;;
10416;SDS011;62605;49.432;8.680;2024-03-08T13:26:25;10.77;;;5.67;;
10416;SDS011;62605;49.432;8.680;2024-03-08T13:28:58;10.37;;;5.90;;
10416;SDS011;62605;49.432;8.680;2024-03-08T13:31:25;10.30;;;5.40;;
10416;SDS011;62605;49.432;8.680;2024-03-08T13:33:53;11.37;;;6.23;;
10416;SDS011;62605;49.432;8.680;2024-03-08T13:36:23;9.50;;;5.27;;
10416;SDS011;62605;49.432;8.680;2024-03-08T13:38:54;8.83;;;4.80;;
10416;SDS011;62605;49.432;8.680;2024-03-08T13:41:25;10.43;;;5.90;;
10416;SDS011;62605;49.432;8.680;2024-03-08T13:43:52;7.23;;;4.93;;
10416;SDS011;62605;49.432;8.680;2024-03-08T13:46:21;10.57;;;5.33;;
10416;SDS011;62605;49.432;8.680;2024-03-08T13:48:49;10.97;;;6.33;;
10416;SDS011;62605;49.432;8.680;2024-03-08T13:51:16;9.67;;;5.97;;
10416;SDS011;62605;49.432;8.680;2024-03-08T13:53:44;10.60;;;6.30;;
10416;SDS011;62605;49.432;8.680;2024-03-08T13:56:11;12.57;;;5.97;;
10416;SDS011;62605;49.432;8.680;2024-03-08T13:58:41;9.47;;;5.27;;
10416;SDS011;62605;49.432;8.680;2024-03-08T14:01:09;11.30;;;5.70;;
10416;SDS011;62605;49.432;8.680;2024-03-08T14:03:36;10.30;;;5.57;;
10416;SDS011;62605;49.432;8.680;2024-03-08T14:06:06;10.27;;;5.90;;
10416;SDS011;62605;49.432;8.680;2024-03-08T14:08:34;11.20;;;5.70;;
10416;SDS011;62605;49.432;8.680;2024-03-08T14:11:03;11.03;;;5.30;;
10416;SDS011;62605;49.432;8.680;2024-03-08T14:13:41;7.70;;;4.63;;
10416;SDS011;62605;49.432;8.680;2024-03-08T14:16:10;11.90;;;5.77;;
10416;SDS011;62605;49.432;8.680;2024-03-08T14:18:38;9.53;;;4.80;;
10416;SDS011;62605;49.432;8.680;2024-03-08T14:21:06;9.03;;;5.17;;
10416;SDS011;62605;49.432;8.680;2024-03-08T14:23:36;7.80;;;4.57;;
10416;SDS011;62605;49.432;8.680;2024-03-08T14:26:08;10.90;;;5.23;;
10416;SDS011;62605;49.432;8.680;2024-03-08T14:28:36;10.07;;;5.30;;
10416;SDS011;62605;49.432;8.680;2024-03-08T14:31:05;8.30;;;5.10;;
10416;SDS011;62605;49.432;8.680;2024-03-08T14:33:36;11.73;;;5.53;;
10416;SDS011;62605;49.432;8.680;2024-03-08T14:36:04;8.93;;;5.00;;
10416;SDS011;62605;49.432;8.680;2024-03-08T14:38:32;14.80;;;6.00;;
10416;SDS011;62605;49.432;8.680;2024-03-08T14:40:59;8.80;;;5.13;;
10416;SDS011;62605;49.432;8.680;2024-03-08T14:43:28;8.63;;;5.03;;
10416;SDS011;62605;49.432;8.680;2024-03-08T14:45:57;12.17;;;5.70;;
10416;SDS011;62605;49.432;8.680;2024-03-08T14:48:25;8.97;;;4.97;;
10416;SDS011;62605;49.432;8.680;2024-03-08T14:50:53;10.50;;;5.57;;
10416;SDS011;62605;49.432;8.680;2024-03-08T14:53:20;11.00;;;6.20;;
10416;SDS011;62605;49.432;8.680;2024-03-08T14:55:47;9.10;;;5.37;;
10416;SDS011;62605;49.432;8.680;2024-03-08T14:58:14;11.50;;;5.53;;
10416;SDS011;62605;49.432;8.680;2024-03-08T15:00:42;13.00;;;5.73;;
10416;SDS011;62605;49.432;8.680;2024-03-08T15:03:23;8.03;;;4.73;;
10416;SDS011;62605;49.432;8.680;2024-03-08T15:05:53;8.90;;;6.07;;
10416;SDS011;62605;49.432;8.680;2024-03-08T15:08:21;10.43;;;5.77;;
10416;SDS011;62605;49.432;8.680;2024-03-08T15:10:49;9.53;;;5.10;;
10416;SDS011;62605;49.432;8.680;2024-03-08T15:13:19;10.53;;;5.27;;
10416;SDS011;62605;49.432;8.680;2024-03-08T15:15:48;9.37;;;5.13;;
10416;SDS011;62605;49.432;8.680;2024-03-08T15:18:20;9.00;;;5.43;;
10416;SDS011;62605;49.432;8.680;2024-03-08T15:20:52;7.90;;;5.20;;
10416;SDS011;62605;49.432;8.680;2024-03-08T15:23:20;8.00;;;5.40;;
10416;SDS011;62605;49.432;8.680;2024-03-08T15:25:47;9.10;;;5.33;;
10416;SDS011;62605;49.432;8.680;2024-03-08T15:28:15;9.33;;;5.43;;
10416;SDS011;62605;49.432;8.680;2024-03-08T15:30:45;9.20;;;5.33;;
10416;SDS011;62605;49.432;8.680;2024-03-08T15:33:16;8.13;;;5.03;;
10416;SDS011;62605;49.432;8.680;2024-03-08T15:35:50;10.17;;;6.00;;
10416;SDS011;62605;49.432;8.680;2024-03-08T15:38:24;9.43;;;5.53;;
10416;SDS011;62605;49.432;8.680;2024-03-08T15:40:52;8.60;;;5.03;;
10416;SDS011;62605;49.432;8.680;2024-03-08T15:43:20;9.63;;;5.23;;
10416;SDS011;62605;49.432;8.680;2024-03-08T15:45:47;11.63;;;6.37;;
10416;SDS011;62605;49.432;8.680;2024-03-08T15:48:15;8.60;;;6.00;;
10416;SDS011;62605;49.432;8.680;2024-03-08T15:50:42;10.70;;;5.53;;
10416;SDS011;62605;49.432;8.680;2024-03-08T15:53:11;10.43;;;5.30;;
10416;SDS011;62605;49.432;8.680;2024-03-08T15:55:38;8.50;;;5.10;;
10416;SDS011;62605;49.432;8.680;2024-03-08T15:58:06;9.63;;;5.60;;
10416;SDS011;62605;49.432;8.680;2024-03-08T16:00:33;10.07;;;5.50;;
10416;SDS011;62605;49.432;8.680;2024-03-08T16:03:01;11.70;;;6.43;;
10416;SDS011;62605;49.432;8.680;2024-03-08T16:05:31;11.37;;;5.37;;
10416;SDS011;62605;49.432;8.680;2024-03-08T16:07:59;9.70;;;5.57;;
10416;SDS011;62605;49.432;8.680;2024-03-08T16:10:28;11.30;;;5.67;;
10416;SDS011;62605;49.432;8.680;2024-03-08T16:12:59;9.17;;;5.03;;
10416;SDS011;62605;49.432;8.680;2024-03-08T16:15:28;8.80;;;4.87;;
10416;SDS011;62605;49.432;8.680;2024-03-08T16:17:56;8.33;;;4.83;;
10416;SDS011;62605;49.432;8.680;2024-03-08T16:20:23;10.90;;;5.60;;
10416;SDS011;62605;49.432;8.680;2024-03-08T16:22:50;10.07;;;5.33;;
10416;SDS011;62605;49.432;8.680;2024-03-08T16:25:18;9.63;;;5.83;;
10416;SDS011;62605;49.432;8.680;2024-03-08T16:27:47;8.60;;;5.03;;
10416;SDS011;62605;49.432;8.680;2024-03-08T16:30:15;10.43;;;5.87;;
10416;SDS011;62605;49.432;8.680;2024-03-08T16:32:42;8.87;;;4.80;;
10416;SDS011;62605;49.432;8.680;2024-03-08T16:35:12;9.30;;;5.03;;
10416;SDS011;62605;49.432;8.680;2024-03-08T16:37:41;10.60;;;5.93;;
10416;SDS011;62605;49.432;8.680;2024-03-08T16:40:09;12.03;;;5.27;;
10416;SDS011;62605;49.432;8.680;2024-03-08T16:42:41;10.43;;;5.17;;
10416;SDS011;62605;49.432;8.680;2024-03-08T16:45:10;11.40;;;5.33;;
10416;SDS011;62605;49.432;8.680;2024-03-08T16:47:38;10.03;;;5.37;;
10416;SDS011;62605;49.432;8.680;2024-03-08T16:50:07;10.97;;;5.63;;
10416;SDS011;62605;49.432;8.680;2024-03-08T16:52:38;10.37;;;5.00;;
10416;SDS011;62605;49.432;8.680;2024-03-08T16:55:05;9.10;;;5.00;;
10416;SDS011;62605;49.432;8.680;2024-03-08T16:57:38;10.13;;;5.23;;
10416;SDS011;62605;49.432;8.680;2024-03-08T17:00:11;11.70;;;5.50;;
10416;SDS011;62605;49.432;8.680;2024-03-08T17:02:43;9.43;;;5.27;;
10416;SDS011;62605;49.432;8.680;2024-03-08T17:05:15;9.40;;;4.93;;
10416;SDS011;62605;49.432;8.680;2024-03-08T17:07:43;8.40;;;5.37;;
10416;SDS011;62605;49.432;8.680;2024-03-08T17:10:12;8.93;;;4.37;;
10416;SDS011;62605;49.432;8.680;2024-03-08T17:12:43;11.23;;;5.57;;
10416;SDS011;62605;49.432;8.680;2024-03-08T17:15:14;8.47;;;4.90;;
10416;SDS011;62605;49.432;8.680;2024-03-08T17:17:42;8.97;;;4.40;;
10416;SDS011;62605;49.432;8.680;2024-03-08T17:20:12;11.30;;;5.13;;
10416;SDS011;62605;49.432;8.680;2024-03-08T17:22:40;7.13;;;4.07;;
10416;SDS011;62605;49.432;8.680;2024-03-08T17:25:09;11.53;;;5.53;;
10416;SDS011;62605;49.432;8.680;2024-03-08T17:27:40;10.00;;;4.70;;
10416;SDS011;62605;49.432;8.680;2024-03-08T17:30:10;10.17;;;5.07;;
10416;SDS011;62605;49.432;8.680;2024-03-08T17:32:46;9.70;;;4.83;;
10416;SDS011;62605;49.432;8.680;2024-03-08T17:35:14;10.23;;;5.57;;
10416;SDS011;62605;49.432;8.680;2024-03-08T17:37:44;9.80;;;4.63;;
10416;SDS011;62605;49.432;8.680;2024-03-08T17:40:15;7.00;;;4.60;;
10416;SDS011;62605;49.432;8.680;2024-03-08T17:42:47;7.90;;;4.47;;
10416;SDS011;62605;49.432;8.680;2024-03-08T17:45:18;9.07;;;4.40;;
10416;SDS011;62605;49.432;8.680;2024-03-08T17:47:47;12.47;;;5.03;;
10416;SDS011;62605;49.432;8.680;2024-03-08T17:50:15;8.27;;;4.53;;
10416;SDS011;62605;49.432;8.680;2024-03-08T17:52:43;6.40;;;3.90;;
10416;SDS011;62605;49.432;8.680;2024-03-08T17:55:11;12.77;;;4.90;;
10416;SDS011;62605;49.432;8.680;2024-03-08T17:57:43;6.60;;;4.40;;
10416;SDS011;62605;49.432;8.680;2024-03-08T18:00:11;11.23;;;4.37;;
10416;SDS011;62605;49.432;8.680;2024-03-08T18:02:44;7.50;;;4.77;;
10416;SDS011;62605;49.432;8.680;2024-03-08T18:05:15;5.33;;;3.97;;
10416;SDS011;62605;49.432;8.680;2024-03-08T18:07:43;8.57;;;3.97;;
10416;SDS011;62605;49.432;8.680;2024-03-08T18:10:11;6.67;;;4.10;;
10416;SDS011;62605;49.432;8.680;2024-03-08T18:12:44;8.83;;;4.50;;
10416;SDS011;62605;49.432;8.680;2024-03-08T18:15:14;7.00;;;4.53;;
10416;SDS011;62605;49.432;8.680;2024-03-08T18:17:49;8.47;;;3.97;;
10416;SDS011;62605;49.432;8.680;2024-03-08T18:20:17;7.90;;;4.63;;
10416;SDS011;62605;49.432;8.680;2024-03-08T18:22:46;11.13;;;4.53;;
10416;SDS011;62605;49.432;8.680;2024-03-08T18:25:14;4.97;;;3.97;;
10416;SDS011;62605;49.432;8.680;2024-03-08T18:27:43;7.17;;;4.37;;
10416;SDS011;62605;49.432;8.680;2024-03-08T18:30:11;8.47;;;4.03;;
10416;SDS011;62605;49.432;8.680;2024-03-08T18:32:42;5.57;;;3.37;;
10416;SDS011;62605;49.432;8.680;2024-03-08T18:35:14;5.73;;;3.80;;
10416;SDS011;62605;49.432;8.680;2024-03-08T18:37:43;6.57;;;4.00;;
10416;SDS011;62605;49.432;8.680;2024-03-08T18:40:12;6.57;;;3.63;;
10416;SDS011;62605;49.432;8.680;2024-03-08T18:42:41;5.67;;;3.53;;
10416;SDS011;62605;49.432;8.680;2024-03-08T18:45:09;8.37;;;4.43;;
10416;SDS011;62605;49.432;8.680;2024-03-08T18:47:38;6.57;;;3.63;;
10416;SDS011;62605;49.432;8.680;2024-03-08T18:50:06;7.63;;;4.00;;
10416;SDS011;62605;49.432;8.680;2024-03-08T18:52:38;6.67;;;3.67;;
10416;SDS011;62605;49.432;8.680;2024-03-08T18:55:07;5.93;;;2.87;;
10416;SDS011;62605;49.432;8.680;2024-03-08T18:57:38;7.13;;;3.60;;
10416;SDS011;62605;49.432;8.680;2024-03-08T19:00:09;6.70;;;3.30;;
10416;SDS011;62605;49.432;8.680;2024-03-08T19:02:46;6.37;;;3.67;;
10416;SDS011;62605;49.432;8.680;2024-03-08T19:05:13;5.67;;;3.57;;
10416;SDS011;62605;49.432;8.680;2024-03-08T19:07:44;5.07;;;3.20;;
10416;SDS011;62605;49.432;8.680;2024-03-08T19:10:11;5.60;;;2.97;;
10416;SDS011;62605;49.432;8.680;2024-03-08T19:12:43;7.20;;;3.50;;
10416;SDS011;62605;49.432;8.680;2024-03-08T19:15:12;4.37;;;3.03;;
10416;SDS011;62605;49.432;8.680;2024-03-08T19:17:41;5.30;;;3.20;;
10416;SDS011;62605;49.432;8.680;2024-03-08T19:20:09;6.20;;;3.37;;
10416;SDS011;62605;49.432;8.680;2024-03-08T19:22:44;6.17;;;3.00;;
10416;SDS011;62605;49.432;8.680;2024-03-08T19:25:12;6.10;;;2.67;;
10416;SDS011;62605;49.432;8.680;2024-03-08T19:27:42;4.77;;;3.10;;
10416;SDS011;62605;49.432;8.680;2024-03-08T19:30:10;6.17;;;3.27;;
10416;SDS011;62605;49.432;8.680;2024-03-08T19:32:39;6.93;;;3.23;;
10416;SDS011;62605;49.432;8.680;2024-03-08T19:35:07;4.37;;;2.90;;
10416;SDS011;62605;49.432;8.680;2024-03-08T19:37:36;5.27;;;2.87;;
10416;SDS011;62605;49.432;8.680;2024-03-08T19:40:08;5.17;;;2.73;;
10416;SDS011;62605;49.432;8.680;2024-03-08T19:42:40;5.07;;;2.43;;
10416;SDS011;62605;49.432;8.680;2024-03-08T19:45:10;5.80;;;2.90;;
10416;SDS011;62605;49.432;8.680;2024-03-08T19:47:37;5.53;;;2.90;;
10416;SDS011;62605;49.432;8.680;2024-03-08T19:50:08;4.93;;;3.07;;
10416;SDS011;62605;49.432;8.680;2024-03-08T19:52:36;2.90;;;2.33;;
10416;SDS011;62605;49.432;8.680;2024-03-08T19:55:04;4.10;;;2.47;;
10416;SDS011;62605;49.432;8.680;2024-03-08T19:57:33;5.13;;;3.07;;
10416;SDS011;62605;49.432;8.680;2024-03-08T20:00:00;4.50;;;2.63;;
10416;SDS011;62605;49.432;8.680;2024-03-08T20:02:29;5.30;;;2.73;;
10416;SDS011;62605;49.432;8.680;2024-03-08T20:04:56;3.77;;;2.83;;
10416;SDS011;62605;49.432;8.680;2024-03-08T20:07:26;5.57;;;2.77;;
10416;SDS011;62605;49.432;8.680;2024-03-08T20:09:54;3.73;;;2.57;;
10416;SDS011;62605;49.432;8.680;2024-03-08T20:12:23;2.97;;;2.60;;
10416;SDS011;62605;49.432;8.680;2024-03-08T20:14:52;4.77;;;2.70;;
10416;SDS011;62605;49.432;8.680;2024-03-08T20:17:19;5.30;;;2.50;;
10416;SDS011;62605;49.432;8.680;2024-03-08T20:19:47;5.00;;;3.10;;
10416;SDS011;62605;49.432;8.680;2024-03-08T20:22:16;4.03;;;2.27;;
10416;SDS011;62605;49.432;8.680;2024-03-08T20:24:44;3.57;;;2.40;;
10416;SDS011;62605;49.432;8.680;2024-03-08T20:27:11;5.17;;;2.97;;
10416;SDS011;62605;49.432;8.680;2024-03-08T20:29:40;4.70;;;2.77;;
10416;SDS011;62605;49.432;8.680;2024-03-08T20:32:09;3.40;;;1.87;;
10416;SDS011;62605;49.432;8.680;2024-03-08T20:34:37;3.13;;;2.30;;
10416;SDS011;62605;49.432;8.680;2024-03-08T20:37:04;4.67;;;2.73;;
10416;SDS011;62605;49.432;8.680;2024-03-08T20:39:34;5.33;;;2.40;;
10416;SDS011;62605;49.432;8.680;2024-03-08T20:42:01;7.30;;;2.63;;
10416;SDS011;62605;49.432;8.680;2024-03-08T20:44:30;5.30;;;3.17;;
10416;SDS011;62605;49.432;8.680;2024-03-08T20:46:58;5.73;;;2.77;;
10416;SDS011;62605;49.432;8.680;2024-03-08T20:49:27;6.70;;;2.97;;
10416;SDS011;62605;49.432;8.680;2024-03-08T20:51:54;3.40;;;2.30;;
10416;SDS011;62605;49.432;8.680;2024-03-08T20:54:21;5.13;;;2.80;;
10416;SDS011;62605;49.432;8.680;2024-03-08T20:56:48;3.13;;;2.47;;
10416;SDS011;62605;49.432;8.680;2024-03-08T20:59:16;4.07;;;1.80;;
10416;SDS011;62605;49.432;8.680;2024-03-08T21:01:44;5.40;;;3.30;;
10416;SDS011;62605;49.432;8.680;2024-03-08T21:04:11;4.50;;;2.57;;
10416;SDS011;62605;49.432;8.680;2024-03-08T21:06:44;3.57;;;2.53;;
10416;SDS011;62605;49.432;8.680;2024-03-08T21:09:11;6.60;;;2.73;;
10416;SDS011;62605;49.432;8.680;2024-03-08T21:11:38;2.87;;;2.20;;
10416;SDS011;62605;49.432;8.680;2024-03-08T21:14:06;4.83;;;2.97;;
10416;SDS011;62605;49.432;8.680;2024-03-08T21:16:35;4.87;;;3.30;;
10416;SDS011;62605;49.432;8.680;2024-03-08T21:19:04;4.80;;;2.70;;
10416;SDS011;62605;49.432;8.680;2024-03-08T21:21:31;4.67;;;2.40;;
10416;SDS011;62605;49.432;8.680;2024-03-08T21:24:00;5.17;;;2.07;;
10416;SDS011;62605;49.432;8.680;2024-03-08T21:26:27;4.80;;;2.30;;
10416;SDS011;62605;49.432;8.680;2024-03-08T21:28:55;6.67;;;3.03;;
10416;SDS011;62605;49.432;8.680;2024-03-08T21:31:24;4.07;;;2.57;;
10416;SDS011;62605;49.432;8.680;2024-03-08T21:33:51;3.87;;;2.47;;
10416;SDS011;62605;49.432;8.680;2024-03-08T21:36:19;4.20;;;2.40;;
10416;SDS011;62605;49.432;8.680;2024-03-08T21:38:47;3.03;;;2.40;;
10416;SDS011;62605;49.432;8.680;2024-03-08T21:41:16;5.33;;;3.17;;
10416;SDS011;62605;49.432;8.680;2024-03-08T21:43:43;4.73;;;2.03;;
10416;SDS011;62605;49.432;8.680;2024-03-08T21:46:10;5.10;;;2.80;;
10416;SDS011;62605;49.432;8.680;2024-03-08T21:48:38;3.40;;;2.50;;
10416;SDS011;62605;49.432;8.680;2024-03-08T21:51:05;3.77;;;2.10;;
10416;SDS011;62605;49.432;8.680;2024-03-08T21:53:33;5.37;;;2.70;;
10416;SDS011;62605;49.432;8.680;2024-03-08T21:56:02;3.40;;;2.87;;
10416;SDS011;62605;49.432;8.680;2024-03-08T23:48:22;5.00;;;2.57;;
10416;SDS011;62605;49.432;8.680;2024-03-08T23:51:04;3.73;;;2.30;;